Time;durP1;ratioP1;P1;durP2;ratioP2;P2;SDS_P1;SDS_P2;PMS_P1;PMS_P2;Temp;Humidity;BMP_temperature;BMP_pressure;BME280_temperature;BME280_humidity;BME280_pressure;Samples;Min_cycle;Max_cycle;Signal;HPM_P1;HPM_P2
2023/01/30 00:01:21;;;;;;;25.25;9.15;;;6.70;99.90;;;;;;5140952;27;20160;-30
2023/01/30 00:03:47;;;;;;;18.08;8.65;;;6.70;99.90;;;;;;5122522;27;20051;-30
2023/01/30 00:06:13;;;;;;;18.38;8.10;;;6.70;97.80;;;;;;5122508;27;20054;-30
2023/01/30 00:08:39;;;;;;;23.75;8.73;;;6.70;99.90;;;;;;5141661;27;20045;-30
2023/01/30 00:11:06;;;;;;;17.02;7.75;;;6.70;86.80;;;;;;5141184;27;20525;-30
2023/01/30 00:13:32;;;;;;;15.45;6.90;;;6.70;93.90;;;;;;5137662;27;20090;-31
2023/01/30 00:15:58;;;;;;;20.23;6.55;;;6.70;65.70;;;;;;5138037;27;20074;-30
2023/01/30 00:18:23;;;;;;;20.55;7.68;;;6.70;75.60;;;;;;5137193;27;20051;-31
2023/01/30 00:20:55;;;;;;;17.45;5.95;;;6.80;56.80;;;;;;5137491;27;20099;-31
2023/01/30 00:23:21;;;;;;;16.50;7.68;;;6.80;15.00;;;;;;5137493;27;20126;-30
2023/01/30 00:25:46;;;;;;;19.13;6.93;;;6.90;17.60;;;;;;5137353;27;20079;-30
2023/01/30 00:28:12;;;;;;;21.05;7.32;;;6.90;1.00;;;;;;5137340;27;20054;-29
2023/01/30 00:30:38;;;;;;;18.90;9.13;;;6.70;59.10;;;;;;5137562;27;20039;-31
2023/01/30 00:33:03;;;;;;;22.10;8.00;;;6.70;99.90;;;;;;5137151;27;20397;-29
2023/01/30 00:35:29;;;;;;;22.83;9.73;;;6.60;99.90;;;;;;5137142;27;20130;-30
2023/01/30 00:37:56;;;;;;;22.33;10.30;;;6.50;99.90;;;;;;5137187;27;20218;-31
2023/01/30 00:40:24;;;;;;;24.92;10.27;;;6.50;99.90;;;;;;5118830;27;20054;-33
2023/01/30 00:48:20;;;;;;;23.30;10.35;;;6.40;99.90;;;;;;5137842;27;20176;-34
2023/01/30 00:50:45;;;;;;;30.42;10.98;;;6.40;99.90;;;;;;5136591;27;20571;-33
2023/01/30 00:53:13;;;;;;;28.60;10.80;;;6.30;99.90;;;;;;5136851;27;20099;-33
2023/01/30 00:55:39;;;;;;;23.77;11.95;;;6.40;99.90;;;;;;5102405;27;20050;-33
2023/01/30 00:58:05;;;;;;;25.08;12.52;;;6.30;99.90;;;;;;5118708;27;20069;-33
2023/01/30 01:00:31;;;;;;;25.55;13.85;;;6.40;99.90;;;;;;5136739;27;20473;-34
2023/01/30 01:02:57;;;;;;;31.10;14.43;;;6.20;99.90;;;;;;5118559;27;20078;-33
2023/01/30 01:05:23;;;;;;;24.73;14.13;;;6.30;99.90;;;;;;5136718;27;20143;-35
2023/01/30 01:07:49;;;;;;;25.77;13.48;;;6.70;99.90;;;;;;5136846;27;20439;-34
2023/01/30 01:10:15;;;;;;;27.80;12.80;;;6.40;99.90;;;;;;5137040;27;20375;-37
2023/01/30 01:12:43;;;;;;;25.98;12.85;;;6.70;99.90;;;;;;5137073;27;20401;-35
2023/01/30 01:15:10;;;;;;;22.60;12.07;;;6.40;99.90;;;;;;5117943;27;20450;-32
2023/01/30 01:17:37;;;;;;;27.05;12.02;;;6.20;99.90;;;;;;5118250;27;20057;-35
2023/01/30 01:20:03;;;;;;;22.95;12.02;;;6.70;99.90;;;;;;5118276;27;20051;-34
2023/01/30 01:22:29;;;;;;;24.30;11.75;;;6.70;99.90;;;;;;5101275;27;20043;-33
2023/01/30 01:24:55;;;;;;;21.25;12.20;;;6.80;99.90;;;;;;5135841;27;20212;-37
2023/01/30 01:27:20;;;;;;;27.38;12.02;;;6.70;99.90;;;;;;5118076;27;20078;-34
2023/01/30 01:29:46;;;;;;;21.83;12.27;;;6.00;99.90;;;;;;5135837;27;20055;-35
2023/01/30 01:32:12;;;;;;;32.72;12.35;;;5.90;99.90;;;;;;5136010;27;20043;-35
2023/01/30 01:34:37;;;;;;;26.25;13.20;;;6.80;99.90;;;;;;5136306;27;20046;-33
2023/01/30 01:37:03;;;;;;;25.33;11.98;;;5.70;99.90;;;;;;5117677;27;20047;-35
2023/01/30 01:41:00;;;;;;;22.95;11.15;;;5.60;99.90;;;;;;5100676;27;20043;-33
2023/01/30 01:42:15;;;;;;;21.95;11.95;;;5.80;99.90;;;;;;5135923;27;20053;-35
2023/01/30 01:45:11;;;;;;;35.40;13.93;;;6.00;99.90;;;;;;5135848;27;20058;-33
2023/01/30 01:47:44;;;;;;;23.48;12.15;;;6.60;99.90;;;;;;5117685;27;20082;-33
2023/01/30 01:50:24;;;;;;;33.92;13.68;;;6.90;99.90;;;;;;5117562;27;20389;-33
2023/01/30 01:52:52;;;;;;;29.45;14.77;;;6.50;99.90;;;;;;5136037;27;20187;-33
2023/01/30 01:55:21;;;;;;;34.63;14.50;;;6.50;99.90;;;;;;5135549;27;20086;-34
2023/01/30 01:57:53;;;;;;;33.33;15.07;;;6.40;99.90;;;;;;5135858;27;20051;-35
2023/01/30 02:00:20;;;;;;;41.67;15.40;;;6.90;99.90;;;;;;5136130;27;20051;-34
2023/01/30 02:02:55;;;;;;;29.35;13.23;;;5.90;99.90;;;;;;5135475;27;20539;-36
2023/01/30 02:05:21;;;;;;;50.03;14.68;;;7.00;99.90;;;;;;5135404;27;20050;-34
2023/01/30 02:07:54;;;;;;;40.08;12.88;;;7.00;99.90;;;;;;5117262;27;20051;-34
2023/01/30 02:10:29;;;;;;;33.97;12.73;;;6.80;99.90;;;;;;5135436;27;20047;-35
2023/01/30 02:12:55;;;;;;;37.10;12.50;;;6.40;99.90;;;;;;5135671;27;20065;-34
2023/01/30 02:15:20;;;;;;;33.22;12.15;;;6.00;99.90;;;;;;5135740;27;20457;-33
2023/01/30 02:17:46;;;;;;;39.65;11.57;;;6.00;99.90;;;;;;5135158;27;20050;-33
2023/01/30 02:20:30;;;;;;;37.00;12.20;;;6.70;99.90;;;;;;5135117;27;20079;-34
2023/01/30 02:23:15;;;;;;;34.08;11.07;;;6.20;99.90;;;;;;5135223;27;20051;-33
2023/01/30 02:26:15;;;;;;;35.70;11.07;;;6.80;99.90;;;;;;5135138;27;20047;-33
2023/01/30 02:29:11;;;;;;;44.17;11.52;;;6.30;99.90;;;;;;5135092;27;20043;-34
2023/01/30 02:31:50;;;;;;;42.30;11.45;;;6.70;99.90;;;;;;5135708;27;20130;-36
2023/01/30 02:34:37;;;;;;;46.85;12.95;;;6.60;99.90;;;;;;5134960;27;20103;-35
2023/01/30 02:37:03;;;;;;;42.70;11.15;;;6.60;99.90;;;;;;5133879;27;20373;-34
2023/01/30 02:39:56;;;;;;;35.20;10.77;;;6.50;99.90;;;;;;5134838;27;20069;-34
2023/01/30 02:42:30;;;;;;;43.08;10.10;;;6.10;99.90;;;;;;5134918;27;20043;-34
2023/01/30 02:45:16;;;;;;;39.22;9.75;;;6.10;99.90;;;;;;5134791;27;20135;-35
2023/01/30 02:48:00;;;;;;;40.60;10.82;;;6.80;99.90;;;;;;5134811;27;20054;-34
2023/01/30 02:50:32;;;;;;;36.70;8.48;;;6.70;99.90;;;;;;5135622;27;20058;-35
2023/01/30 02:52:58;;;;;;;38.58;8.35;;;6.30;99.90;;;;;;5135333;27;20488;-36
2023/01/30 02:55:27;;;;;;;40.65;9.05;;;6.20;99.90;;;;;;5134886;27;20047;-34
2023/01/30 02:57:52;;;;;;;41.55;10.93;;;6.30;99.90;;;;;;5134663;27;20386;-34
2023/01/30 03:00:31;;;;;;;33.10;8.35;;;6.20;99.90;;;;;;5134885;28;20050;-36
2023/01/30 03:03:18;;;;;;;38.45;9.60;;;6.50;99.90;;;;;;5134646;28;20047;-33
2023/01/30 03:06:03;;;;;;;27.80;7.95;;;6.30;99.90;;;;;;5134252;28;20114;-35
2023/01/30 03:08:37;;;;;;;42.65;8.00;;;6.40;99.90;;;;;;5117011;28;20047;-33
2023/01/30 03:11:06;;;;;;;32.05;7.40;;;6.40;99.90;;;;;;5116908;28;20043;-33
2023/01/30 03:13:57;;;;;;;32.13;7.22;;;6.20;99.90;;;;;;5134514;28;20515;-33
2023/01/30 03:16:30;;;;;;;36.13;6.65;;;6.20;99.90;;;;;;5134455;28;20191;-32
2023/01/30 03:18:58;;;;;;;21.65;6.50;;;6.20;99.90;;;;;;5134859;28;20509;-34
2023/01/30 03:21:24;;;;;;;34.55;6.63;;;6.10;99.90;;;;;;5134447;28;20153;-33
2023/01/30 03:23:50;;;;;;;41.72;7.35;;;6.00;99.90;;;;;;5134995;28;20104;-33
2023/01/30 03:26:20;;;;;;;36.60;7.07;;;6.00;99.90;;;;;;5116087;28;20047;-33
2023/01/30 03:28:48;;;;;;;26.60;6.43;;;5.90;99.90;;;;;;5134428;28;20051;-34
2023/01/30 03:31:14;;;;;;;36.25;6.45;;;5.80;99.90;;;;;;5134415;28;20047;-34
2023/01/30 03:33:40;;;;;;;29.58;5.88;;;5.70;99.90;;;;;;5134250;27;20047;-34
2023/01/30 03:36:07;;;;;;;31.65;6.57;;;5.70;99.90;;;;;;5134245;28;20043;-35
2023/01/30 03:38:34;;;;;;;38.72;7.55;;;5.60;99.90;;;;;;5116040;28;20576;-34
2023/01/30 03:41:00;;;;;;;37.28;6.22;;;5.60;99.90;;;;;;5116704;28;20043;-35
2023/01/30 03:43:26;;;;;;;33.08;7.25;;;5.40;99.90;;;;;;5116956;28;20115;-33
2023/01/30 03:45:51;;;;;;;25.40;5.22;;;5.40;99.90;;;;;;5116183;28;20051;-33
2023/01/30 03:48:17;;;;;;;31.73;5.57;;;5.50;99.90;;;;;;5136245;27;20078;-34
2023/01/30 03:50:43;;;;;;;25.77;6.25;;;5.40;99.90;;;;;;5138086;27;20537;-33
2023/01/30 03:53:08;;;;;;;26.38;4.75;;;5.40;99.90;;;;;;5138590;27;20047;-33
2023/01/30 03:55:34;;;;;;;29.60;5.88;;;5.40;99.90;;;;;;5119606;27;20035;-33
2023/01/30 03:58:00;;;;;;;32.72;6.53;;;5.40;99.90;;;;;;5137938;27;20047;-33
2023/01/30 04:00:25;;;;;;;26.75;5.82;;;5.40;99.90;;;;;;5137961;27;20167;-33
2023/01/30 04:02:53;;;;;;;34.28;7.10;;;5.40;99.90;;;;;;5137887;27;20046;-33
2023/01/30 04:05:19;;;;;;;20.95;4.05;;;5.40;99.90;;;;;;5137694;27;20078;-33
2023/01/30 04:07:45;;;;;;;29.98;5.82;;;5.40;99.90;;;;;;5119223;27;20508;-34
2023/01/30 04:10:14;;;;;;;34.55;4.82;;;5.40;99.90;;;;;;5138274;27;20043;-32
2023/01/30 04:12:43;;;;;;;30.35;6.82;;;5.40;99.90;;;;;;5137655;27;20043;-32
2023/01/30 04:15:09;;;;;;;25.27;4.97;;;5.40;1.00;;;;;;5137615;27;20047;-32
2023/01/30 04:17:35;;;;;;;20.65;4.55;;;5.40;99.90;;;;;;5137648;27;20043;-32
2023/01/30 04:20:01;;;;;;;34.58;5.07;;;5.40;99.90;;;;;;5137478;27;20050;-32
2023/01/30 04:22:27;;;;;;;28.60;4.97;;;5.40;99.90;;;;;;5137526;27;20070;-32
2023/01/30 04:24:52;;;;;;;34.55;7.20;;;5.30;99.90;;;;;;5137145;27;20485;-32
2023/01/30 04:27:18;;;;;;;28.08;5.00;;;5.30;99.90;;;;;;5138265;27;20050;-31
2023/01/30 04:29:44;;;;;;;35.92;6.63;;;5.10;1.00;;;;;;5119062;27;20568;-30
2023/01/30 04:32:09;;;;;;;31.38;5.25;;;5.10;1.00;;;;;;5137508;27;20043;-31
2023/01/30 04:34:35;;;;;;;32.72;6.20;;;5.10;1.00;;;;;;5137236;27;20130;-31
2023/01/30 04:37:01;;;;;;;42.22;7.30;;;5.20;1.00;;;;;;5118669;27;20078;-31
2023/01/30 04:39:26;;;;;;;40.72;7.45;;;5.30;1.00;;;;;;5101502;27;20050;-31
2023/01/30 04:41:52;;;;;;;36.17;6.93;;;5.30;32.10;;;;;;5137681;27;20095;-31
2023/01/30 04:44:18;;;;;;;36.13;6.15;;;5.30;99.90;;;;;;5137116;27;20050;-31
2023/01/30 04:46:43;;;;;;;34.88;6.93;;;5.50;1.00;;;;;;5101735;27;20078;-31
2023/01/30 04:49:10;;;;;;;31.02;6.03;;;5.50;99.90;;;;;;5137520;27;20108;-30
2023/01/30 04:51:35;;;;;;;28.55;5.05;;;5.50;15.00;;;;;;5136921;27;20047;-31
2023/01/30 04:54:01;;;;;;;32.25;5.18;;;5.40;1.00;;;;;;5136564;27;20075;-31
2023/01/30 04:56:27;;;;;;;31.50;5.85;;;5.40;1.00;;;;;;5085403;27;20047;-30
2023/01/30 04:58:53;;;;;;;35.10;5.65;;;5.30;99.90;;;;;;5136823;27;20043;-31
2023/01/30 05:01:24;;;;;;;37.25;6.53;;;5.40;99.90;;;;;;5136538;27;20039;-31
2023/01/30 05:03:51;;;;;;;38.33;6.47;;;5.30;99.90;;;;;;5137515;27;20049;-31
2023/01/30 05:06:17;;;;;;;37.97;5.82;;;5.20;99.90;;;;;;5136782;27;20147;-31
2023/01/30 05:08:42;;;;;;;35.50;6.30;;;5.20;99.90;;;;;;5102408;27;20083;-31
2023/01/30 05:11:08;;;;;;;34.28;6.15;;;5.10;1.00;;;;;;5101962;27;20120;-31
2023/01/30 05:13:34;;;;;;;32.83;6.38;;;5.10;99.90;;;;;;5137043;27;20078;-31
2023/01/30 05:15:59;;;;;;;32.53;5.53;;;5.20;99.90;;;;;;5118656;27;20070;-31
2023/01/30 05:18:25;;;;;;;34.95;5.32;;;5.10;99.90;;;;;;5101333;27;20043;-31
2023/01/30 05:20:51;;;;;;;33.63;5.10;;;5.00;1.00;;;;;;5118098;27;20129;-30
2023/01/30 05:23:16;;;;;;;39.67;6.28;;;5.00;1.00;;;;;;5136608;27;20039;-32
2023/01/30 05:25:42;;;;;;;34.33;6.18;;;5.00;1.00;;;;;;5136843;27;20043;-31
2023/01/30 05:28:08;;;;;;;36.70;7.22;;;5.00;1.00;;;;;;5136481;27;20404;-30
2023/01/30 05:30:33;;;;;;;39.88;7.82;;;5.00;1.00;;;;;;5101087;27;20435;-31
2023/01/30 05:32:59;;;;;;;39.08;6.38;;;5.20;99.90;;;;;;5118272;27;20046;-31
2023/01/30 05:35:25;;;;;;;33.03;5.75;;;5.10;99.90;;;;;;5136281;27;20043;-31
2023/01/30 05:37:51;;;;;;;36.85;6.72;;;5.20;99.90;;;;;;5117766;27;20043;-31
2023/01/30 05:40:17;;;;;;;37.83;5.85;;;5.10;99.90;;;;;;5136809;27;20129;-30
2023/01/30 05:42:42;;;;;;;37.97;7.10;;;5.10;99.90;;;;;;5118135;27;20035;-30
2023/01/30 05:45:08;;;;;;;36.95;5.28;;;5.10;99.90;;;;;;5117524;27;20069;-30
2023/01/30 05:47:34;;;;;;;30.02;6.57;;;5.10;99.90;;;;;;5135815;27;20103;-30
2023/01/30 05:50:00;;;;;;;34.28;7.13;;;5.10;99.90;;;;;;5100631;27;20051;-30
2023/01/30 05:52:25;;;;;;;33.15;6.50;;;5.10;99.90;;;;;;5135978;27;20098;-30
2023/01/30 05:54:51;;;;;;;38.15;6.47;;;5.20;99.90;;;;;;5100303;27;20043;-30
2023/01/30 05:57:17;;;;;;;34.55;6.07;;;5.20;99.90;;;;;;5135606;27;20043;-30
2023/01/30 05:59:42;;;;;;;36.20;6.97;;;5.30;99.90;;;;;;5117469;27;20066;-30
2023/01/30 06:02:08;;;;;;;37.25;7.32;;;5.20;99.90;;;;;;5135514;27;20117;-30
2023/01/30 06:04:34;;;;;;;30.60;6.53;;;5.50;99.90;;;;;;5100446;27;20042;-32
2023/01/30 06:07:00;;;;;;;38.58;6.13;;;5.60;99.90;;;;;;5135706;27;20135;-31
2023/01/30 06:09:25;;;;;;;36.80;7.70;;;5.60;99.90;;;;;;5136253;27;20486;-30
2023/01/30 06:11:51;;;;;;;30.65;5.47;;;5.70;99.90;;;;;;5134369;27;20366;-30
2023/01/30 06:14:17;;;;;;;33.88;6.13;;;5.80;99.90;;;;;;5117200;27;20130;-30
2023/01/30 06:16:43;;;;;;;35.50;8.38;;;5.60;99.90;;;;;;5116885;27;20136;-30
2023/01/30 06:19:08;;;;;;;36.83;6.78;;;5.70;99.90;;;;;;5101044;27;20039;-30
2023/01/30 06:21:34;;;;;;;34.13;6.57;;;5.70;36.80;;;;;;5135176;27;20043;-30
2023/01/30 06:24:01;;;;;;;35.90;6.47;;;5.80;49.00;;;;;;5135667;27;20043;-30
2023/01/30 06:26:26;;;;;;;31.58;6.38;;;5.70;13.60;;;;;;5135078;27;20043;-30
2023/01/30 06:28:52;;;;;;;31.08;6.30;;;5.80;1.00;;;;;;5135632;27;20537;-30
2023/01/30 06:31:18;;;;;;;50.47;8.82;;;5.70;1.00;;;;;;5135002;27;20572;-31
2023/01/30 06:33:44;;;;;;;30.80;6.22;;;5.70;1.00;;;;;;5116708;27;20103;-30
2023/01/30 06:36:09;;;;;;;36.70;6.82;;;5.70;1.00;;;;;;5134895;27;20047;-30
2023/01/30 06:38:35;;;;;;;35.95;6.65;;;5.80;1.00;;;;;;5117155;27;20039;-30
2023/01/30 06:41:01;;;;;;;36.30;6.65;;;5.70;1.00;;;;;;5134856;27;20046;-30
2023/01/30 06:43:27;;;;;;;37.30;6.35;;;5.80;1.00;;;;;;5134808;27;20054;-31
2023/01/30 06:45:52;;;;;;;39.97;6.68;;;5.60;1.00;;;;;;5116437;27;20046;-30
2023/01/30 06:48:18;;;;;;;43.90;7.70;;;5.60;19.80;;;;;;5135644;27;20385;-30
2023/01/30 06:50:46;;;;;;;32.00;7.40;;;5.70;99.90;;;;;;5134434;27;20047;-30
2023/01/30 06:53:13;;;;;;;46.88;9.40;;;5.70;1.00;;;;;;5134732;27;20122;-31
2023/01/30 06:55:38;;;;;;;32.95;7.43;;;5.70;11.40;;;;;;5099269;27;20043;-31
2023/01/30 06:58:12;;;;;;;38.80;5.90;;;5.70;60.10;;;;;;5134642;27;20043;-30
2023/01/30 07:00:40;;;;;;;32.22;7.47;;;5.70;54.20;;;;;;5134651;27;20099;-30
2023/01/30 07:03:13;;;;;;;42.83;7.22;;;5.70;1.00;;;;;;5117336;28;20100;-30
2023/01/30 07:05:39;;;;;;;;;;;5.70;74.80;;;;;;5135438;28;20114;-30
2023/01/30 07:08:05;;;;;;;38.03;7.05;;;5.80;1.00;;;;;;5099236;28;19962;-29
2023/01/30 07:10:31;;;;;;;33.47;6.47;;;5.80;1.00;;;;;;5134573;28;20083;-30
2023/01/30 07:12:58;;;;;;;35.42;7.82;;;5.80;1.00;;;;;;5116433;28;20089;-30
2023/01/30 07:15:23;;;;;;;37.35;7.57;;;5.90;99.90;;;;;;5135019;28;20039;-31
2023/01/30 07:17:49;;;;;;;38.15;8.13;;;5.80;1.00;;;;;;5135124;28;20047;-31
2023/01/30 07:20:15;;;;;;;34.78;8.05;;;5.80;99.90;;;;;;5134542;28;20080;-30
2023/01/30 07:22:41;;;;;;;40.28;6.60;;;5.80;1.00;;;;;;5135607;27;20508;-30
2023/01/30 07:25:07;;;;;;;45.97;7.72;;;5.80;1.00;;;;;;5139441;27;20115;-30
2023/01/30 07:27:33;;;;;;;44.25;7.18;;;5.70;1.00;;;;;;5120161;27;20516;-29
2023/01/30 07:29:59;;;;;;;34.22;6.00;;;5.80;1.00;;;;;;5120566;27;20055;-29
2023/01/30 07:32:25;;;;;;;32.13;6.03;;;5.60;9.60;;;;;;5086127;27;20546;-29
2023/01/30 07:34:50;;;;;;;38.72;6.97;;;5.70;1.00;;;;;;5120282;27;20043;-29
2023/01/30 07:37:16;;;;;;;36.53;8.43;;;5.80;1.00;;;;;;5138201;27;20122;-29
2023/01/30 07:39:42;;;;;;;41.75;7.75;;;5.80;1.00;;;;;;5138659;27;20126;-29
2023/01/30 07:42:08;;;;;;;37.67;8.18;;;5.90;1.00;;;;;;5138308;27;20388;-29
2023/01/30 07:44:33;;;;;;;39.50;9.02;;;6.00;1.00;;;;;;5103724;27;20055;-29
2023/01/30 07:47:00;;;;;;;44.50;8.13;;;5.90;1.00;;;;;;5120870;27;20051;-30
2023/01/30 07:49:25;;;;;;;36.20;7.53;;;5.90;99.90;;;;;;5119901;27;20107;-30
2023/01/30 07:51:52;;;;;;;38.88;7.35;;;5.90;1.00;;;;;;5119980;27;20477;-29
2023/01/30 07:54:17;;;;;;;37.97;7.80;;;6.00;1.00;;;;;;5138081;27;20058;-29
2023/01/30 07:56:43;;;;;;;43.28;8.02;;;6.00;1.00;;;;;;5103437;27;20043;-29
2023/01/30 07:59:10;;;;;;;38.40;6.75;;;6.00;1.00;;;;;;5138493;27;20087;-30
2023/01/30 08:01:36;;;;;;;36.47;7.13;;;6.00;99.90;;;;;;5137904;27;20407;-30
2023/01/30 08:04:02;;;;;;;41.22;8.93;;;6.00;1.00;;;;;;5137871;27;20130;-30
2023/01/30 08:06:28;;;;;;;27.35;6.65;;;6.00;99.90;;;;;;5099063;28;20055;-29
2023/01/30 08:08:53;;;;;;;30.33;7.90;;;6.10;99.90;;;;;;5116594;28;20130;-31
2023/01/30 08:11:19;;;;;;;35.67;6.10;;;6.10;99.90;;;;;;5117964;28;20043;-29
2023/01/30 08:13:46;;;;;;;37.70;8.98;;;6.10;99.90;;;;;;5117190;27;20454;-30
2023/01/30 08:16:11;;;;;;;34.45;6.13;;;6.10;99.90;;;;;;5116484;28;20489;-30
2023/01/30 08:18:37;;;;;;;37.70;7.22;;;6.10;99.90;;;;;;5116992;28;20044;-29
2023/01/30 08:21:05;;;;;;;36.70;8.27;;;6.10;99.90;;;;;;5115809;28;20048;-30
2023/01/30 08:23:32;;;;;;;38.63;8.45;;;6.10;99.90;;;;;;5115817;28;20083;-30
2023/01/30 08:26:00;;;;;;;37.42;7.53;;;6.20;99.90;;;;;;5116776;28;20055;-29
2023/01/30 08:28:27;;;;;;;34.75;7.35;;;6.20;1.00;;;;;;5116721;28;20051;-29
2023/01/30 08:30:53;;;;;;;35.53;8.18;;;6.30;99.90;;;;;;5115577;28;20047;-30
2023/01/30 08:33:20;;;;;;;32.83;6.78;;;6.30;99.90;;;;;;5116551;28;20126;-30
2023/01/30 08:35:46;;;;;;;33.97;7.00;;;6.30;1.00;;;;;;5115675;28;20130;-31
2023/01/30 08:38:13;;;;;;;40.60;8.88;;;6.20;99.90;;;;;;5116607;28;20083;-29
2023/01/30 08:40:39;;;;;;;33.80;6.53;;;6.30;99.90;;;;;;5115407;28;20047;-29
2023/01/30 08:43:05;;;;;;;39.80;7.80;;;6.20;99.90;;;;;;5117430;28;20035;-30
2023/01/30 08:45:31;;;;;;;32.25;6.15;;;6.20;99.90;;;;;;5115624;28;20425;-30
2023/01/30 08:48:02;;;;;;;32.05;6.65;;;6.20;99.90;;;;;;5115521;28;20043;-29
2023/01/30 08:50:28;;;;;;;37.20;8.50;;;6.10;99.90;;;;;;5117069;28;20115;-29
2023/01/30 08:52:54;;;;;;;37.05;8.55;;;6.20;99.90;;;;;;5116258;28;20036;-29
2023/01/30 08:55:20;;;;;;;35.53;6.55;;;6.30;40.90;;;;;;5098115;28;20046;-30
2023/01/30 08:57:46;;;;;;;32.85;8.57;;;6.40;99.90;;;;;;5116571;28;20047;-29
2023/01/30 09:00:13;;;;;;;42.42;10.30;;;6.50;99.90;;;;;;5116254;28;20083;-29
2023/01/30 09:02:39;;;;;;;30.83;7.93;;;6.50;99.90;;;;;;5116483;28;20122;-29
2023/01/30 09:05:05;;;;;;;41.75;8.20;;;6.40;1.00;;;;;;5121043;27;20464;-29
2023/01/30 09:07:31;;;;;;;47.17;8.52;;;6.30;1.00;;;;;;5136663;27;20055;-31
2023/01/30 09:09:57;;;;;;;32.05;6.65;;;6.40;1.00;;;;;;5137195;27;20078;-29
2023/01/30 09:12:23;;;;;;;40.42;7.85;;;6.30;27.10;;;;;;5136546;27;20082;-29
2023/01/30 09:14:48;;;;;;;34.63;9.50;;;6.40;1.00;;;;;;5101777;27;20047;-29
2023/01/30 09:17:14;;;;;;;52.53;9.70;;;6.50;99.90;;;;;;5136726;27;20049;-29
2023/01/30 09:19:40;;;;;;;41.88;9.40;;;6.50;99.90;;;;;;5118955;27;20074;-30
2023/01/30 09:22:09;;;;;;;46.38;9.63;;;6.60;99.90;;;;;;5136647;27;20469;-30
2023/01/30 09:24:34;;;;;;;43.05;9.25;;;6.60;28.40;;;;;;5136324;27;20054;-29
2023/01/30 09:27:00;;;;;;;45.45;8.52;;;6.60;99.90;;;;;;5136813;27;20039;-28
2023/01/30 09:29:27;;;;;;;40.95;7.95;;;6.30;48.10;;;;;;5136237;27;20046;-30
2023/01/30 09:31:55;;;;;;;39.45;9.50;;;5.90;99.90;;;;;;5118049;27;20393;-29
2023/01/30 09:34:26;;;;;;;37.05;8.68;;;5.90;1.00;;;;;;5101045;27;20054;-31
2023/01/30 09:36:52;;;;;;;35.20;6.50;;;5.90;1.00;;;;;;5136605;27;20039;-30
2023/01/30 09:39:18;;;;;;;48.03;10.00;;;6.00;1.00;;;;;;5101158;27;20047;-32
2023/01/30 09:42:05;;;;;;;42.30;9.80;;;6.20;1.00;;;;;;5117684;27;20051;-31
2023/01/30 09:44:40;;;;;;;41.50;8.32;;;6.30;99.90;;;;;;5135945;27;20137;-31
2023/01/30 09:47:15;;;;;;;41.75;9.57;;;6.30;99.90;;;;;;5135678;27;20134;-31
2023/01/30 09:50:03;;;;;;;46.47;8.07;;;6.40;1.00;;;;;;5117478;27;20055;-30
2023/01/30 09:52:56;;;;;;;39.85;9.73;;;6.40;99.90;;;;;;5135777;27;20043;-30
2023/01/30 09:55:25;;;;;;;33.73;4.67;;;6.60;99.90;;;;;;5135724;27;20046;-30
2023/01/30 09:57:51;;;;;;;41.83;8.07;;;6.60;99.90;;;;;;5135931;27;20130;-29
2023/01/30 10:00:17;;;;;;;40.90;10.30;;;6.60;99.90;;;;;;5135595;27;20122;-30
2023/01/30 10:02:52;;;;;;;48.67;7.70;;;6.70;23.70;;;;;;5135550;27;20075;-30
2023/01/30 10:05:18;;;;;;;39.75;10.18;;;6.70;1.00;;;;;;5113916;28;20054;-29
2023/01/30 10:07:53;;;;;;;24.27;6.03;;;6.90;1.00;;;;;;5115489;28;20135;-29
2023/01/30 10:11:00;;;;;;;41.05;7.80;;;6.90;99.90;;;;;;5115812;28;20393;-30
2023/01/30 10:13:26;;;;;;;34.42;6.80;;;7.00;1.00;;;;;;5104066;28;20092;-30
2023/01/30 10:16:14;;;;;;;38.97;7.63;;;7.10;99.90;;;;;;5115245;28;20047;-29
2023/01/30 10:18:48;;;;;;;27.45;6.22;;;7.30;1.00;;;;;;5115095;28;20106;-30
2023/01/30 10:21:47;;;;;;;14.77;3.60;;;6.50;91.30;;;;;;5114774;27;20050;-30
2023/01/30 10:24:40;;;;;;;24.90;3.35;;;6.00;1.00;;;;;;5114636;28;20051;-34
2023/01/30 10:27:15;;;;;;;4.05;1.05;;;5.80;99.90;;;;;;5114893;28;20439;-32
2023/01/30 10:29:47;;;;;;;3.60;0.73;;;4.90;1.00;;;;;;5115395;28;20039;-31
2023/01/30 10:32:31;;;;;;;7.82;1.25;;;4.20;99.90;;;;;;5114508;28;20040;-30
2023/01/30 10:34:59;;;;;;;;;;;4.00;99.90;;;;;;5115564;28;20051;-30
2023/01/30 10:38:03;;;;;;;12.27;2.50;;;4.30;99.90;;;;;;5114405;28;19919;-30
2023/01/30 10:40:43;;;;;;;16.90;1.50;;;4.40;99.90;;;;;;5114054;28;20125;-31
2023/01/30 10:43:21;;;;;;;11.75;1.58;;;4.80;99.90;;;;;;5114117;28;20509;-31
2023/01/30 10:46:13;;;;;;;8.48;1.95;;;4.90;99.90;;;;;;5115216;28;20044;-30
2023/01/30 10:48:44;;;;;;;17.55;2.53;;;5.20;1.00;;;;;;5114291;28;20485;-30
2023/01/30 10:51:22;;;;;;;12.20;2.15;;;5.30;4.80;;;;;;5114843;28;20446;-29
2023/01/30 10:53:59;;;;;;;23.73;3.58;;;5.50;99.90;;;;;;5114220;28;20051;-29
2023/01/30 10:56:47;;;;;;;16.45;3.35;;;5.50;99.90;;;;;;5114248;28;20481;-31
2023/01/30 10:59:48;;;;;;;25.00;4.47;;;5.60;1.00;;;;;;5113948;28;20477;-30
2023/01/30 11:02:24;;;;;;;27.10;4.53;;;5.80;1.00;;;;;;5114775;28;20055;-29
2023/01/30 11:04:59;;;;;;;29.52;5.25;;;5.80;99.90;;;;;;5116358;28;20054;-29
2023/01/30 11:07:28;;;;;;;22.73;4.25;;;6.00;99.90;;;;;;5099858;28;20051;-29
2023/01/30 11:09:57;;;;;;;21.25;4.63;;;6.20;99.90;;;;;;5134610;28;20191;-29
2023/01/30 11:12:23;;;;;;;20.90;5.03;;;6.50;99.90;;;;;;5116238;28;20512;-29
2023/01/30 11:14:53;;;;;;;22.35;5.18;;;6.60;99.90;;;;;;5134552;28;20142;-29
2023/01/30 11:17:26;;;;;;;22.02;4.38;;;6.70;99.90;;;;;;5099541;28;20050;-29
2023/01/30 11:19:55;;;;;;;21.60;3.95;;;6.80;99.90;;;;;;5134280;28;20400;-29
2023/01/30 11:22:24;;;;;;;28.65;4.35;;;6.80;99.90;;;;;;5134542;28;20061;-30
2023/01/30 11:25:03;;;;;;;25.33;4.88;;;6.70;78.40;;;;;;5116326;28;20054;-29
2023/01/30 11:27:32;;;;;;;21.85;3.53;;;6.70;75.10;;;;;;5116472;28;20051;-29
2023/01/30 11:30:08;;;;;;;22.67;4.70;;;6.70;1.00;;;;;;5134405;28;20051;-29
2023/01/30 11:32:34;;;;;;;19.58;3.58;;;6.70;1.00;;;;;;5134614;27;20043;-29
2023/01/30 11:35:22;;;;;;;23.40;4.47;;;6.70;1.00;;;;;;5134905;28;20066;-29
2023/01/30 11:37:50;;;;;;;13.52;1.67;;;6.80;1.00;;;;;;5134361;28;20046;-29
2023/01/30 11:40:25;;;;;;;8.95;1.70;;;6.90;1.00;;;;;;5134053;28;20443;-29
2023/01/30 11:43:03;;;;;;;11.35;2.85;;;7.00;1.00;;;;;;5134404;28;20100;-29
2023/01/30 11:45:37;;;;;;;16.55;3.20;;;6.90;99.90;;;;;;5099212;28;20050;-29
2023/01/30 11:48:26;;;;;;;10.38;1.95;;;6.80;99.90;;;;;;5134522;28;20571;-29
2023/01/30 11:51:01;;;;;;;16.42;2.65;;;6.80;99.90;;;;;;5134868;28;20400;-29
2023/01/30 11:53:48;;;;;;;19.45;4.43;;;6.70;99.90;;;;;;5135076;28;20047;-29
2023/01/30 11:56:33;;;;;;;16.23;2.67;;;6.70;1.00;;;;;;5099045;28;20504;-29
2023/01/30 11:59:13;;;;;;;14.25;3.08;;;6.80;1.00;;;;;;5098856;28;20404;-29
2023/01/30 12:01:39;;;;;;;16.33;2.72;;;6.80;1.00;;;;;;5099147;28;20510;-29
2023/01/30 12:04:09;;;;;;;20.65;3.90;;;6.70;1.00;;;;;;5099269;28;20140;-30
2023/01/30 12:06:38;;;;;;;27.25;4.10;;;6.70;1.00;;;;;;5116397;28;20089;-28
2023/01/30 12:09:04;;;;;;;18.30;3.75;;;6.70;5.60;;;;;;5135656;27;20134;-29
2023/01/30 12:11:43;;;;;;;15.95;2.83;;;6.80;19.70;;;;;;5138094;27;20039;-29
2023/01/30 12:14:12;;;;;;;12.38;3.42;;;6.90;38.30;;;;;;5138055;27;20039;-29
2023/01/30 12:17:04;;;;;;;18.92;4.20;;;7.30;1.70;;;;;;5138185;27;20039;-29
2023/01/30 12:19:38;;;;;;;25.05;4.70;;;7.10;1.00;;;;;;5108319;27;20139;-29
2023/01/30 12:22:19;;;;;;;21.25;3.40;;;7.10;20.20;;;;;;5137623;27;20130;-29
2023/01/30 12:24:57;;;;;;;18.10;3.45;;;7.10;28.40;;;;;;5119748;27;20051;-29
2023/01/30 12:27:42;;;;;;;11.48;2.78;;;7.00;1.00;;;;;;5137507;27;20122;-28
2023/01/30 12:30:40;;;;;;;17.25;3.40;;;6.90;99.90;;;;;;5137398;27;20073;-30
2023/01/30 12:33:13;;;;;;;17.30;4.65;;;7.00;99.90;;;;;;5137082;27;20790;-29
2023/01/30 12:36:00;;;;;;;20.83;2.90;;;7.20;99.90;;;;;;5137281;27;20038;-30
2023/01/30 12:38:37;;;;;;;18.88;3.63;;;7.20;99.90;;;;;;5137298;27;20047;-30
2023/01/30 12:41:06;;;;;;;26.40;3.60;;;7.20;1.00;;;;;;5119953;27;20121;-29
2023/01/30 12:43:46;;;;;;;19.13;3.38;;;7.20;1.00;;;;;;5137133;27;20489;-29
2023/01/30 12:46:54;;;;;;;23.88;4.55;;;7.20;1.00;;;;;;5101662;27;20083;-30
2023/01/30 12:49:22;;;;;;;21.63;4.50;;;7.40;99.90;;;;;;5136995;27;20369;-30
2023/01/30 12:52:24;;;;;;;19.92;3.17;;;7.30;99.90;;;;;;5118805;27;20051;-31
2023/01/30 12:55:28;;;;;;;22.45;4.90;;;7.40;1.00;;;;;;5137560;27;20362;-30
2023/01/30 12:58:10;;;;;;;15.73;2.43;;;7.40;1.00;;;;;;5137754;27;20189;-29
2023/01/30 13:01:06;;;;;;;15.30;2.97;;;7.30;99.90;;;;;;5137768;27;20392;-29
2023/01/30 13:03:40;;;;;;;16.52;2.65;;;7.30;99.90;;;;;;5137385;27;20450;-30
2023/01/30 13:06:39;;;;;;;22.85;4.13;;;7.30;99.90;;;;;;5136328;27;20104;-29
2023/01/30 13:09:37;;;;;;;20.52;4.25;;;7.30;99.90;;;;;;5136998;27;20093;-29
2023/01/30 13:12:14;;;;;;;13.85;3.45;;;7.20;99.90;;;;;;5137213;27;20064;-30